Terminal Aerodrome Forecast
Issued by NWS

Home | Current Version | Previous Version | Text Only | Print | Product List | Glossary On
Versions: 1 2 3 4 5 6 7 8 9 10 11 12 13 14 15 16
000
FTUS43 KDLH 210520
TAFHYR
TAF
KHYR 210520Z 2106/2206 18011KT P6SM BKN200 WS020/20045KT
     FM210900 18010KT P6SM BKN150
     FM211200 18010KT P6SM VCSH OVC060
     FM211700 18012G20KT P6SM VCTS OVC025CB
     FM212200 18012G21KT 6SM -SHRA VCTS OVC015CB
     FM220300 18011KT 5SM -SHRA OVC012=

USA.gov is the U.S. government's official web portal to all federal, state and local government web resources and services.